Butes — A8UR6 — position and weather

sailwx.info

Track history (hours):
 
Tides and Currents Weather Stations Pressure Air Temp Water Temp Dewpoint Dewpoint Depression Visibility Wind Speed Wind Dir Waves Ship Positions

Butes

Last reported at 2015-Jul-28 01:33 UTC. Time now 2015-Jul-31 23:31 UTC.
Position N 35°48' E 027°52'.

Length 90 m; draft 5.5 m.

Type: Cargo ship. MMSI: 636091937.

Date/timePositionNaut miles runAvg speedWind from/ knotsBaromVisibWave heightAir tempDewpointWater temp
2015-Jul-28 01:33N 35°48' E 027°52'8 8.3
2015-Jul-28 00:33N 35°50' E 027°42'9 9.2
2015-Jul-27 23:33N 35°53' E 027°31'9 9.4
2015-Jul-27 22:33N 35°56' E 027°20'9 9.0
2015-Jul-27 21:33N 35°59' E 027°10'9 8.5
2015-Jul-27 20:33N 36°01' E 026°59'9 8.6
2015-Jul-27 19:32N 36°03' E 026°49'12 8.6
2015-Jul-27 18:06N 36°07' E 026°34'5 8.5
2015-Jul-27 17:31N 36°08' E 026°28'8 8.4
2015-Jul-27 16:33N 36°09' E 026°18'8 8.5
2015-Jul-27 15:33N 36°09' E 026°08'8 8.5
2015-Jul-27 14:33N 36°09' E 025°57'8 8.4
2015-Jul-27 13:33N 36°09' E 025°47'19 8.3
2015-Jul-27 11:15N 36°08' E 025°23'6 8.5
2015-Jul-27 10:33N 36°08' E 025°16'9 8.7
2015-Jul-27 09:33N 36°07' E 025°05'9 8.7
2015-Jul-27 08:32N 36°07' E 024°55'12 9.0
2015-Jul-27 07:15N 36°07' E 024°40'8 9.4
2015-Jul-27 06:26N 36°06' E 024°31'9 9.7
2015-Jul-27 05:30N 36°07' E 024°19'409 8.6
2015-Jul-25 06:12N 35°54' E 015°55'14 8.3
2015-Jul-25 04:28N 35°54' E 015°37'41 8.4
2015-Jul-24 23:33N 35°52' E 014°46'1 0.8
2015-Jul-24 22:31N 35°52' E 014°45'0 0.0
2015-Jul-24 21:28N 35°52' E 014°45'0 0.0
2015-Jul-24 20:31N 35°52' E 014°45'0 0.0
2015-Jul-24 19:31N 35°52' E 014°45'1 0.7
2015-Jul-24 18:33N 35°52' E 014°44'9 9.4
2015-Jul-24 17:33N 35°58' E 014°35'1110.6
2015-Jul-24 16:33N 36°04' E 014°24'1010.0
2015-Jul-24 15:33N 36°10' E 014°14'9 9.1
2015-Jul-24 14:33N 36°15' E 014°05'9 9.2
2015-Jul-24 13:33N 36°20' E 013°55'9 9.2
2015-Jul-24 12:32N 36°24' E 013°45'9 9.2
2015-Jul-24 11:33N 36°30' E 013°36'9 9.1
2015-Jul-24 10:33N 36°35' E 013°27'9 9.2
2015-Jul-24 09:33N 36°40' E 013°17'9 9.2
2015-Jul-24 08:33N 36°45' E 013°08'9 9.0
2015-Jul-24 07:33N 36°50' E 012°58'9 9.0
2015-Jul-24 06:33N 36°55' E 012°48'9 8.9
2015-Jul-24 05:33N 36°59' E 012°39'36 9.0
2015-Jul-24 01:31N 37°17' E 011°59'316 9.0
2015-Jul-22 14:33N 39°38' E 005°58'88 8.8
2015-Jul-22 04:31N 40°10' E 004°11'46 9.3
2015-Jul-21 23:33N 40°27' E 003°15'9 8.6
2015-Jul-21 22:33N 40°30' E 003°04'8 8.4
2015-Jul-21 21:33N 40°33' E 002°54'8 8.4
2015-Jul-21 20:34N 40°36' E 002°44'9 8.8
2015-Jul-21 19:33N 40°39' E 002°33'10 9.8
2015-Jul-21 18:33N 40°43' E 002°21'9 9.0
2015-Jul-21 17:33N 40°46' E 002°10'9 8.8
2015-Jul-21 16:33N 40°50' E 001°59'9 8.9
2015-Jul-21 15:33N 40°53' E 001°48'9 8.8
2015-Jul-21 14:29N 40°57' E 001°37'8 8.7
2015-Jul-21 13:32N 40°59' E 001°26'9 8.7
2015-Jul-21 12:32N 41°02' E 001°15'4 0.3
2015-Jul-21 00:26N 41°06' E 001°14'0 0.0
2015-Jul-20 01:29N 41°06' E 001°14'0 0.0
2015-Jul-19 14:32N 41°06' E 001°14'0 0.0
2015-Jul-18 13:11N 41°06' E 001°14'0 0.0
2015-Jul-18 12:23N 41°06' E 001°14'8 4.2
2015-Jul-18 10:33N 41°05' E 001°24'9 8.4
2015-Jul-18 09:29N 41°07' E 001°36'8 8.0
2015-Jul-18 08:33N 41°08' E 001°46'27 8.9
2015-Jul-18 05:33N 41°18' E 002°18'10 9.2
2015-Jul-18 04:27N 41°22' E 002°31'9 9.5
2015-Jul-18 03:32N 41°24' E 002°42'9 9.4
2015-Jul-18 02:33N 41°28' E 002°53'9 9.1
2015-Jul-18 01:33N 41°31' E 003°04'  
Track history (hours):
 
Tides and Currents Weather Stations Pressure Air Temp Water Temp Dewpoint Dewpoint Depression Visibility Wind Speed Wind Dir Waves Ship Positions

Butes

Last reported at 2015-Jul-28 01:33 UTC. Time now 2015-Jul-31 23:31 UTC.
Position N 35°48' E 027°52'.

Length 90 m; draft 5.5 m.

Type: Cargo ship. MMSI: 636091937.

Date/timePositionNaut miles runAvg speedWind from/ knotsBaromVisibWave heightAir tempDewpointWater temp
2015-Jul-28 01:33N 35°48' E 027°52'8 8.3
2015-Jul-28 00:33N 35°50' E 027°42'9 9.2
2015-Jul-27 23:33N 35°53' E 027°31'9 9.4
2015-Jul-27 22:33N 35°56' E 027°20'9 9.0
2015-Jul-27 21:33N 35°59' E 027°10'9 8.5
2015-Jul-27 20:33N 36°01' E 026°59'9 8.6
2015-Jul-27 19:32N 36°03' E 026°49'12 8.6
2015-Jul-27 18:06N 36°07' E 026°34'5 8.5
2015-Jul-27 17:31N 36°08' E 026°28'8 8.4
2015-Jul-27 16:33N 36°09' E 026°18'8 8.5
2015-Jul-27 15:33N 36°09' E 026°08'8 8.5
2015-Jul-27 14:33N 36°09' E 025°57'8 8.4
2015-Jul-27 13:33N 36°09' E 025°47'19 8.3
2015-Jul-27 11:15N 36°08' E 025°23'6 8.5
2015-Jul-27 10:33N 36°08' E 025°16'9 8.7
2015-Jul-27 09:33N 36°07' E 025°05'9 8.7
2015-Jul-27 08:32N 36°07' E 024°55'12 9.0
2015-Jul-27 07:15N 36°07' E 024°40'8 9.4
2015-Jul-27 06:26N 36°06' E 024°31'9 9.7
2015-Jul-27 05:30N 36°07' E 024°19'409 8.6
2015-Jul-25 06:12N 35°54' E 015°55'14 8.3
2015-Jul-25 04:28N 35°54' E 015°37'41 8.4
2015-Jul-24 23:33N 35°52' E 014°46'1 0.8
2015-Jul-24 22:31N 35°52' E 014°45'0 0.0
2015-Jul-24 21:28N 35°52' E 014°45'0 0.0
2015-Jul-24 20:31N 35°52' E 014°45'0 0.0
2015-Jul-24 19:31N 35°52' E 014°45'1 0.7
2015-Jul-24 18:33N 35°52' E 014°44'9 9.4
2015-Jul-24 17:33N 35°58' E 014°35'1110.6
2015-Jul-24 16:33N 36°04' E 014°24'1010.0
2015-Jul-24 15:33N 36°10' E 014°14'9 9.1
2015-Jul-24 14:33N 36°15' E 014°05'9 9.2
2015-Jul-24 13:33N 36°20' E 013°55'9 9.2
2015-Jul-24 12:32N 36°24' E 013°45'9 9.2
2015-Jul-24 11:33N 36°30' E 013°36'9 9.1
2015-Jul-24 10:33N 36°35' E 013°27'9 9.2
2015-Jul-24 09:33N 36°40' E 013°17'9 9.2
2015-Jul-24 08:33N 36°45' E 013°08'9 9.0
2015-Jul-24 07:33N 36°50' E 012°58'9 9.0
2015-Jul-24 06:33N 36°55' E 012°48'9 8.9
2015-Jul-24 05:33N 36°59' E 012°39'36 9.0
2015-Jul-24 01:31N 37°17' E 011°59'316 9.0
2015-Jul-22 14:33N 39°38' E 005°58'88 8.8
2015-Jul-22 04:31N 40°10' E 004°11'46 9.3
2015-Jul-21 23:33N 40°27' E 003°15'9 8.6
2015-Jul-21 22:33N 40°30' E 003°04'8 8.4
2015-Jul-21 21:33N 40°33' E 002°54'8 8.4
2015-Jul-21 20:34N 40°36' E 002°44'9 8.8
2015-Jul-21 19:33N 40°39' E 002°33'10 9.8
2015-Jul-21 18:33N 40°43' E 002°21'9 9.0
2015-Jul-21 17:33N 40°46' E 002°10'9 8.8
2015-Jul-21 16:33N 40°50' E 001°59'9 8.9
2015-Jul-21 15:33N 40°53' E 001°48'9 8.8
2015-Jul-21 14:29N 40°57' E 001°37'8 8.7
2015-Jul-21 13:32N 40°59' E 001°26'9 8.7
2015-Jul-21 12:32N 41°02' E 001°15'4 0.3
2015-Jul-21 00:26N 41°06' E 001°14'0 0.0
2015-Jul-20 01:29N 41°06' E 001°14'0 0.0
2015-Jul-19 14:32N 41°06' E 001°14'0 0.0
2015-Jul-18 13:11N 41°06' E 001°14'0 0.0
2015-Jul-18 12:23N 41°06' E 001°14'8 4.2
2015-Jul-18 10:33N 41°05' E 001°24'9 8.4
2015-Jul-18 09:29N 41°07' E 001°36'8 8.0
2015-Jul-18 08:33N 41°08' E 001°46'27 8.9
2015-Jul-18 05:33N 41°18' E 002°18'10 9.2
2015-Jul-18 04:27N 41°22' E 002°31'9 9.5
2015-Jul-18 03:32N 41°24' E 002°42'9 9.4
2015-Jul-18 02:33N 41°28' E 002°53'9 9.1
2015-Jul-18 01:33N 41°31' E 003°04'  

Dump ship's entire track history